sensor_id;sensor_type;location;lat;lon;timestamp;P1;durP1;ratioP1;P2;durP2;ratioP2
14890;SDS011;7537;48.014;11.590;2023-03-23T00:04:51;1.74;;;1.71;;
14890;SDS011;7537;48.014;11.590;2023-03-23T00:10:18;4.23;;;1.93;;
14890;SDS011;7537;48.014;11.590;2023-03-23T00:15:46;1.23;;;1.39;;
14890;SDS011;7537;48.014;11.590;2023-03-23T00:21:14;2.19;;;1.69;;
14890;SDS011;7537;48.014;11.590;2023-03-23T00:26:42;1.78;;;1.59;;
14890;SDS011;7537;48.014;11.590;2023-03-23T00:32:13;2.65;;;2.49;;
14890;SDS011;7537;48.014;11.590;2023-03-23T00:37:40;2.04;;;2.12;;
14890;SDS011;7537;48.014;11.590;2023-03-23T00:43:08;5.61;;;2.81;;
14890;SDS011;7537;48.014;11.590;2023-03-23T00:48:35;3.88;;;1.96;;
14890;SDS011;7537;48.014;11.590;2023-03-23T00:54:03;2.24;;;1.94;;
14890;SDS011;7537;48.014;11.590;2023-03-23T00:59:30;3.81;;;2.46;;
14890;SDS011;7537;48.014;11.590;2023-03-23T01:04:57;1.29;;;1.41;;
14890;SDS011;7537;48.014;11.590;2023-03-23T01:10:25;2.47;;;2.53;;
14890;SDS011;7537;48.014;11.590;2023-03-23T01:15:53;1.97;;;1.83;;
14890;SDS011;7537;48.014;11.590;2023-03-23T01:21:23;2.23;;;2.25;;
14890;SDS011;7537;48.014;11.590;2023-03-23T01:26:51;2.01;;;2.15;;
14890;SDS011;7537;48.014;11.590;2023-03-23T01:32:29;2.60;;;1.71;;
14890;SDS011;7537;48.014;11.590;2023-03-23T01:37:56;3.75;;;1.72;;
14890;SDS011;7537;48.014;11.590;2023-03-23T01:43:23;2.25;;;1.66;;
14890;SDS011;7537;48.014;11.590;2023-03-23T01:48:51;2.03;;;1.52;;
14890;SDS011;7537;48.014;11.590;2023-03-23T01:54:18;1.47;;;1.42;;
14890;SDS011;7537;48.014;11.590;2023-03-23T01:59:49;1.47;;;1.55;;
14890;SDS011;7537;48.014;11.590;2023-03-23T02:05:18;1.66;;;1.74;;
14890;SDS011;7537;48.014;11.590;2023-03-23T02:10:47;1.47;;;1.55;;
14890;SDS011;7537;48.014;11.590;2023-03-23T02:16:16;1.92;;;1.88;;
14890;SDS011;7537;48.014;11.590;2023-03-23T02:21:51;1.13;;;1.24;;
14890;SDS011;7537;48.014;11.590;2023-03-23T02:27:24;2.13;;;1.35;;
14890;SDS011;7537;48.014;11.590;2023-03-23T02:33:12;2.23;;;1.52;;
14890;SDS011;7537;48.014;11.590;2023-03-23T02:38:44;1.62;;;1.50;;
14890;SDS011;7537;48.014;11.590;2023-03-23T02:44:14;1.54;;;1.25;;
14890;SDS011;7537;48.014;11.590;2023-03-23T02:49:42;3.21;;;1.33;;
14890;SDS011;7537;48.014;11.590;2023-03-23T02:55:11;1.66;;;1.45;;
14890;SDS011;7537;48.014;11.590;2023-03-23T03:00:42;1.67;;;1.77;;
14890;SDS011;7537;48.014;11.590;2023-03-23T03:06:14;1.41;;;1.47;;
14890;SDS011;7537;48.014;11.590;2023-03-23T03:11:46;2.19;;;1.77;;
14890;SDS011;7537;48.014;11.590;2023-03-23T03:17:16;5.66;;;2.99;;
14890;SDS011;7537;48.014;11.590;2023-03-23T03:22:46;4.57;;;1.91;;
14890;SDS011;7537;48.014;11.590;2023-03-23T03:28:15;1.84;;;1.63;;
14890;SDS011;7537;48.014;11.590;2023-03-23T03:33:46;1.85;;;1.96;;
14890;SDS011;7537;48.014;11.590;2023-03-23T03:39:15;3.83;;;1.91;;
14890;SDS011;7537;48.014;11.590;2023-03-23T03:44:42;1.84;;;1.47;;
14890;SDS011;7537;48.014;11.590;2023-03-23T03:50:10;1.21;;;1.31;;
14890;SDS011;7537;48.014;11.590;2023-03-23T03:55:37;4.71;;;1.52;;
14890;SDS011;7537;48.014;11.590;2023-03-23T04:01:05;1.68;;;1.63;;
14890;SDS011;7537;48.014;11.590;2023-03-23T04:06:32;1.48;;;1.54;;
14890;SDS011;7537;48.014;11.590;2023-03-23T04:11:59;0.89;;;1.00;;
14890;SDS011;7537;48.014;11.590;2023-03-23T04:17:27;2.32;;;1.54;;
14890;SDS011;7537;48.014;11.590;2023-03-23T04:22:54;1.69;;;1.55;;
14890;SDS011;7537;48.014;11.590;2023-03-23T04:28:22;3.11;;;1.69;;
14890;SDS011;7537;48.014;11.590;2023-03-23T04:33:57;1.50;;;1.59;;
14890;SDS011;7537;48.014;11.590;2023-03-23T04:39:24;7.04;;;2.69;;
14890;SDS011;7537;48.014;11.590;2023-03-23T04:44:52;1.63;;;1.54;;
14890;SDS011;7537;48.014;11.590;2023-03-23T04:50:20;1.98;;;1.62;;
14890;SDS011;7537;48.014;11.590;2023-03-23T04:55:48;1.56;;;1.51;;
14890;SDS011;7537;48.014;11.590;2023-03-23T05:01:16;5.94;;;1.55;;
14890;SDS011;7537;48.014;11.590;2023-03-23T05:06:43;3.18;;;1.36;;
14890;SDS011;7537;48.014;11.590;2023-03-23T05:12:10;3.25;;;1.91;;
14890;SDS011;7537;48.014;11.590;2023-03-23T05:17:38;3.58;;;1.57;;
14890;SDS011;7537;48.014;11.590;2023-03-23T05:23:10;0.93;;;1.04;;
14890;SDS011;7537;48.014;11.590;2023-03-23T05:28:37;1.21;;;1.22;;
14890;SDS011;7537;48.014;11.590;2023-03-23T05:34:13;1.69;;;1.41;;
14890;SDS011;7537;48.014;11.590;2023-03-23T05:39:41;1.06;;;1.16;;
14890;SDS011;7537;48.014;11.590;2023-03-23T05:45:09;3.68;;;1.79;;
14890;SDS011;7537;48.014;11.590;2023-03-23T05:50:36;1.34;;;1.48;;
14890;SDS011;7537;48.014;11.590;2023-03-23T05:56:04;1.37;;;1.36;;
14890;SDS011;7537;48.014;11.590;2023-03-23T06:01:32;1.58;;;1.67;;
14890;SDS011;7537;48.014;11.590;2023-03-23T06:07:00;1.49;;;1.53;;
14890;SDS011;7537;48.014;11.590;2023-03-23T06:12:32;4.74;;;1.61;;
14890;SDS011;7537;48.014;11.590;2023-03-23T06:18:04;4.24;;;1.78;;
14890;SDS011;7537;48.014;11.590;2023-03-23T06:23:31;2.28;;;1.34;;
14890;SDS011;7537;48.014;11.590;2023-03-23T06:28:59;2.64;;;1.64;;
14890;SDS011;7537;48.014;11.590;2023-03-23T06:34:30;1.91;;;1.62;;
14890;SDS011;7537;48.014;11.590;2023-03-23T06:39:58;4.16;;;1.39;;
14890;SDS011;7537;48.014;11.590;2023-03-23T06:45:25;1.49;;;1.45;;
14890;SDS011;7537;48.014;11.590;2023-03-23T06:50:53;1.71;;;1.75;;
14890;SDS011;7537;48.014;11.590;2023-03-23T06:56:20;1.41;;;1.47;;
14890;SDS011;7537;48.014;11.590;2023-03-23T07:01:48;1.86;;;1.36;;
14890;SDS011;7537;48.014;11.590;2023-03-23T07:07:15;1.34;;;1.39;;
14890;SDS011;7537;48.014;11.590;2023-03-23T07:12:42;1.97;;;1.98;;
14890;SDS011;7537;48.014;11.590;2023-03-23T07:18:18;2.47;;;1.88;;
14890;SDS011;7537;48.014;11.590;2023-03-23T07:23:58;1.79;;;1.87;;
14890;SDS011;7537;48.014;11.590;2023-03-23T07:29:26;1.83;;;1.94;;
14890;SDS011;7537;48.014;11.590;2023-03-23T07:34:59;5.96;;;2.35;;
14890;SDS011;7537;48.014;11.590;2023-03-23T07:40:26;1.67;;;1.70;;
14890;SDS011;7537;48.014;11.590;2023-03-23T07:45:53;4.48;;;2.12;;
14890;SDS011;7537;48.014;11.590;2023-03-23T07:51:21;1.84;;;1.74;;
14890;SDS011;7537;48.014;11.590;2023-03-23T07:56:48;1.86;;;1.69;;
14890;SDS011;7537;48.014;11.590;2023-03-23T08:02:15;1.65;;;1.66;;
14890;SDS011;7537;48.014;11.590;2023-03-23T08:07:43;2.07;;;1.46;;
14890;SDS011;7537;48.014;11.590;2023-03-23T08:13:10;1.63;;;1.68;;
14890;SDS011;7537;48.014;11.590;2023-03-23T08:18:38;1.44;;;1.49;;
14890;SDS011;7537;48.014;11.590;2023-03-23T08:24:06;1.84;;;1.52;;
14890;SDS011;7537;48.014;11.590;2023-03-23T08:29:35;2.37;;;1.52;;
14890;SDS011;7537;48.014;11.590;2023-03-23T08:35:07;2.93;;;1.69;;
14890;SDS011;7537;48.014;11.590;2023-03-23T08:40:34;1.95;;;1.91;;
14890;SDS011;7537;48.014;11.590;2023-03-23T08:46:01;1.57;;;1.66;;
14890;SDS011;7537;48.014;11.590;2023-03-23T08:51:29;2.04;;;2.04;;
14890;SDS011;7537;48.014;11.590;2023-03-23T08:56:58;2.27;;;2.12;;
14890;SDS011;7537;48.014;11.590;2023-03-23T09:02:26;1.72;;;1.24;;
14890;SDS011;7537;48.014;11.590;2023-03-23T09:07:57;2.42;;;2.19;;
14890;SDS011;7537;48.014;11.590;2023-03-23T09:13:25;3.18;;;2.26;;
14890;SDS011;7537;48.014;11.590;2023-03-23T09:18:52;4.02;;;2.46;;
14890;SDS011;7537;48.014;11.590;2023-03-23T09:24:19;2.51;;;1.77;;
14890;SDS011;7537;48.014;11.590;2023-03-23T09:29:46;1.94;;;1.57;;
14890;SDS011;7537;48.014;11.590;2023-03-23T09:35:24;1.71;;;1.73;;
14890;SDS011;7537;48.014;11.590;2023-03-23T09:40:53;1.97;;;1.84;;
14890;SDS011;7537;48.014;11.590;2023-03-23T09:46:27;2.27;;;2.28;;
14890;SDS011;7537;48.014;11.590;2023-03-23T09:51:57;2.22;;;2.38;;
14890;SDS011;7537;48.014;11.590;2023-03-23T09:57:27;2.22;;;2.33;;
14890;SDS011;7537;48.014;11.590;2023-03-23T10:02:57;4.78;;;2.66;;
14890;SDS011;7537;48.014;11.590;2023-03-23T10:08:27;3.51;;;2.65;;
14890;SDS011;7537;48.014;11.590;2023-03-23T10:14:08;3.09;;;2.71;;
14890;SDS011;7537;48.014;11.590;2023-03-23T10:19:38;3.10;;;2.86;;
14890;SDS011;7537;48.014;11.590;2023-03-23T10:25:14;2.66;;;2.61;;
14890;SDS011;7537;48.014;11.590;2023-03-23T10:30:42;3.43;;;3.56;;
14890;SDS011;7537;48.014;11.590;2023-03-23T10:36:15;2.90;;;3.01;;
14890;SDS011;7537;48.014;11.590;2023-03-23T10:41:44;4.64;;;2.73;;
14890;SDS011;7537;48.014;11.590;2023-03-23T10:47:11;3.14;;;3.17;;
14890;SDS011;7537;48.014;11.590;2023-03-23T10:52:39;3.96;;;3.46;;
14890;SDS011;7537;48.014;11.590;2023-03-23T10:58:09;6.09;;;3.89;;
14890;SDS011;7537;48.014;11.590;2023-03-23T11:03:41;5.17;;;3.23;;
14890;SDS011;7537;48.014;11.590;2023-03-23T11:09:10;3.39;;;3.07;;
14890;SDS011;7537;48.014;11.590;2023-03-23T11:14:38;3.32;;;3.19;;
14890;SDS011;7537;48.014;11.590;2023-03-23T11:20:18;4.41;;;3.34;;
14890;SDS011;7537;48.014;11.590;2023-03-23T11:25:53;2.86;;;2.71;;
14890;SDS011;7537;48.014;11.590;2023-03-23T11:31:22;2.46;;;2.59;;
14890;SDS011;7537;48.014;11.590;2023-03-23T11:36:53;3.17;;;3.15;;
14890;SDS011;7537;48.014;11.590;2023-03-23T11:42:23;3.07;;;2.97;;
14890;SDS011;7537;48.014;11.590;2023-03-23T11:47:55;3.31;;;3.37;;
14890;SDS011;7537;48.014;11.590;2023-03-23T11:53:25;4.35;;;3.24;;
14890;SDS011;7537;48.014;11.590;2023-03-23T11:58:55;3.52;;;3.44;;
14890;SDS011;7537;48.014;11.590;2023-03-23T12:04:29;3.48;;;2.99;;
14890;SDS011;7537;48.014;11.590;2023-03-23T12:10:02;3.12;;;3.07;;
14890;SDS011;7537;48.014;11.590;2023-03-23T12:15:34;3.07;;;3.19;;
14890;SDS011;7537;48.014;11.590;2023-03-23T12:21:08;2.85;;;2.93;;
14890;SDS011;7537;48.014;11.590;2023-03-23T12:26:40;3.42;;;2.69;;
14890;SDS011;7537;48.014;11.590;2023-03-23T12:38:12;3.28;;;3.14;;
14890;SDS011;7537;48.014;11.590;2023-03-23T12:43:46;2.54;;;2.60;;
14890;SDS011;7537;48.014;11.590;2023-03-23T12:49:15;3.27;;;2.99;;
14890;SDS011;7537;48.014;11.590;2023-03-23T12:54:45;3.01;;;2.87;;
14890;SDS011;7537;48.014;11.590;2023-03-23T13:00:19;4.02;;;2.82;;
14890;SDS011;7537;48.014;11.590;2023-03-23T13:05:49;2.21;;;2.33;;
14890;SDS011;7537;48.014;11.590;2023-03-23T13:11:19;5.56;;;2.43;;
14890;SDS011;7537;48.014;11.590;2023-03-23T13:16:49;2.97;;;2.21;;
14890;SDS011;7537;48.014;11.590;2023-03-23T13:22:18;2.46;;;2.19;;
14890;SDS011;7537;48.014;11.590;2023-03-23T13:27:56;7.03;;;2.11;;
14890;SDS011;7537;48.014;11.590;2023-03-23T13:33:24;2.22;;;2.24;;
14890;SDS011;7537;48.014;11.590;2023-03-23T13:38:55;3.26;;;1.86;;
14890;SDS011;7537;48.014;11.590;2023-03-23T13:44:23;1.41;;;1.50;;
14890;SDS011;7537;48.014;11.590;2023-03-23T13:49:52;1.37;;;1.46;;
14890;SDS011;7537;48.014;11.590;2023-03-23T14:01:12;1.51;;;1.58;;
14890;SDS011;7537;48.014;11.590;2023-03-23T14:06:40;2.12;;;1.51;;
14890;SDS011;7537;48.014;11.590;2023-03-23T14:12:15;1.36;;;1.43;;
14890;SDS011;7537;48.014;11.590;2023-03-23T14:17:43;1.17;;;1.26;;
14890;SDS011;7537;48.014;11.590;2023-03-23T14:23:18;4.21;;;1.82;;
14890;SDS011;7537;48.014;11.590;2023-03-23T14:28:49;0.96;;;1.08;;
14890;SDS011;7537;48.014;11.590;2023-03-23T14:34:18;1.29;;;1.22;;
14890;SDS011;7537;48.014;11.590;2023-03-23T14:39:50;3.37;;;1.36;;
14890;SDS011;7537;48.014;11.590;2023-03-23T14:45:19;1.67;;;1.33;;
14890;SDS011;7537;48.014;11.590;2023-03-23T14:50:49;1.86;;;1.59;;
14890;SDS011;7537;48.014;11.590;2023-03-23T14:56:18;1.33;;;1.41;;
14890;SDS011;7537;48.014;11.590;2023-03-23T15:01:46;1.71;;;1.71;;
14890;SDS011;7537;48.014;11.590;2023-03-23T15:07:14;3.59;;;1.77;;
14890;SDS011;7537;48.014;11.590;2023-03-23T15:12:43;5.17;;;1.76;;
14890;SDS011;7537;48.014;11.590;2023-03-23T15:18:17;3.03;;;1.39;;
14890;SDS011;7537;48.014;11.590;2023-03-23T15:23:46;2.62;;;1.54;;
14890;SDS011;7537;48.014;11.590;2023-03-23T15:29:17;3.70;;;1.71;;
14890;SDS011;7537;48.014;11.590;2023-03-23T15:34:45;2.21;;;1.56;;
14890;SDS011;7537;48.014;11.590;2023-03-23T15:40:27;2.79;;;1.81;;
14890;SDS011;7537;48.014;11.590;2023-03-23T15:45:56;2.11;;;1.46;;
14890;SDS011;7537;48.014;11.590;2023-03-23T15:51:24;2.36;;;1.64;;
14890;SDS011;7537;48.014;11.590;2023-03-23T15:56:52;1.51;;;1.42;;
14890;SDS011;7537;48.014;11.590;2023-03-23T16:02:21;1.19;;;1.25;;
14890;SDS011;7537;48.014;11.590;2023-03-23T16:07:48;1.34;;;1.36;;
14890;SDS011;7537;48.014;11.590;2023-03-23T16:13:16;2.85;;;1.86;;
14890;SDS011;7537;48.014;11.590;2023-03-23T16:18:43;2.69;;;1.24;;
14890;SDS011;7537;48.014;11.590;2023-03-23T16:24:11;1.26;;;1.19;;
14890;SDS011;7537;48.014;11.590;2023-03-23T16:29:39;1.42;;;1.45;;
14890;SDS011;7537;48.014;11.590;2023-03-23T16:35:08;1.49;;;1.55;;
14890;SDS011;7537;48.014;11.590;2023-03-23T16:40:39;2.80;;;1.98;;
14890;SDS011;7537;48.014;11.590;2023-03-23T16:46:06;1.71;;;1.78;;
14890;SDS011;7537;48.014;11.590;2023-03-23T16:51:33;2.39;;;1.71;;
14890;SDS011;7537;48.014;11.590;2023-03-23T16:57:01;1.23;;;1.34;;
14890;SDS011;7537;48.014;11.590;2023-03-23T17:02:28;2.74;;;1.79;;
14890;SDS011;7537;48.014;11.590;2023-03-23T17:07:56;1.38;;;1.46;;
14890;SDS011;7537;48.014;11.590;2023-03-23T17:13:23;1.38;;;1.45;;
14890;SDS011;7537;48.014;11.590;2023-03-23T17:18:51;4.44;;;2.16;;
14890;SDS011;7537;48.014;11.590;2023-03-23T17:24:18;2.24;;;1.42;;
14890;SDS011;7537;48.014;11.590;2023-03-23T17:29:45;1.48;;;1.52;;
14890;SDS011;7537;48.014;11.590;2023-03-23T17:35:16;2.45;;;1.51;;
14890;SDS011;7537;48.014;11.590;2023-03-23T17:40:47;3.39;;;1.72;;
14890;SDS011;7537;48.014;11.590;2023-03-23T17:46:14;2.11;;;2.05;;
14890;SDS011;7537;48.014;11.590;2023-03-23T17:51:41;2.93;;;1.93;;
14890;SDS011;7537;48.014;11.590;2023-03-23T17:57:09;2.33;;;2.37;;
14890;SDS011;7537;48.014;11.590;2023-03-23T18:02:36;2.82;;;1.99;;
14890;SDS011;7537;48.014;11.590;2023-03-23T18:08:12;2.17;;;1.83;;
14890;SDS011;7537;48.014;11.590;2023-03-23T18:13:40;2.66;;;1.84;;
14890;SDS011;7537;48.014;11.590;2023-03-23T18:19:08;2.87;;;2.23;;
14890;SDS011;7537;48.014;11.590;2023-03-23T18:24:35;1.62;;;1.72;;
14890;SDS011;7537;48.014;11.590;2023-03-23T18:30:04;1.73;;;1.81;;
14890;SDS011;7537;48.014;11.590;2023-03-23T18:35:32;3.30;;;1.78;;
14890;SDS011;7537;48.014;11.590;2023-03-23T18:41:05;2.84;;;1.36;;
14890;SDS011;7537;48.014;11.590;2023-03-23T18:46:33;2.63;;;2.37;;
14890;SDS011;7537;48.014;11.590;2023-03-23T18:52:00;2.45;;;2.46;;
14890;SDS011;7537;48.014;11.590;2023-03-23T18:57:28;3.08;;;3.09;;
14890;SDS011;7537;48.014;11.590;2023-03-23T19:02:56;2.74;;;2.73;;
14890;SDS011;7537;48.014;11.590;2023-03-23T19:08:23;2.74;;;1.99;;
14890;SDS011;7537;48.014;11.590;2023-03-23T19:13:50;3.06;;;1.90;;
14890;SDS011;7537;48.014;11.590;2023-03-23T19:19:18;4.54;;;2.24;;
14890;SDS011;7537;48.014;11.590;2023-03-23T19:24:46;2.06;;;1.76;;
14890;SDS011;7537;48.014;11.590;2023-03-23T19:30:13;2.51;;;2.59;;
14890;SDS011;7537;48.014;11.590;2023-03-23T19:35:41;2.73;;;2.82;;
14890;SDS011;7537;48.014;11.590;2023-03-23T19:41:19;2.66;;;2.74;;
14890;SDS011;7537;48.014;11.590;2023-03-23T19:46:48;2.29;;;2.43;;
14890;SDS011;7537;48.014;11.590;2023-03-23T19:52:16;3.18;;;2.98;;
14890;SDS011;7537;48.014;11.590;2023-03-23T19:57:45;2.55;;;2.28;;
14890;SDS011;7537;48.014;11.590;2023-03-23T20:03:18;3.21;;;2.12;;
14890;SDS011;7537;48.014;11.590;2023-03-23T20:08:46;2.62;;;2.51;;
14890;SDS011;7537;48.014;11.590;2023-03-23T20:14:14;2.76;;;2.52;;
14890;SDS011;7537;48.014;11.590;2023-03-23T20:19:42;2.71;;;2.76;;
14890;SDS011;7537;48.014;11.590;2023-03-23T20:25:14;1.95;;;1.99;;
14890;SDS011;7537;48.014;11.590;2023-03-23T20:30:42;2.39;;;2.42;;
14890;SDS011;7537;48.014;11.590;2023-03-23T20:36:11;3.07;;;2.16;;
14890;SDS011;7537;48.014;11.590;2023-03-23T20:41:42;4.43;;;1.91;;
14890;SDS011;7537;48.014;11.590;2023-03-23T20:47:12;5.22;;;2.51;;
14890;SDS011;7537;48.014;11.590;2023-03-23T20:52:40;4.53;;;2.51;;
14890;SDS011;7537;48.014;11.590;2023-03-23T20:58:08;4.53;;;4.02;;
14890;SDS011;7537;48.014;11.590;2023-03-23T21:03:39;5.97;;;4.08;;
14890;SDS011;7537;48.014;11.590;2023-03-23T21:09:07;5.74;;;3.28;;
14890;SDS011;7537;48.014;11.590;2023-03-23T21:14:35;3.24;;;2.94;;
14890;SDS011;7537;48.014;11.590;2023-03-23T21:20:03;2.80;;;2.86;;
14890;SDS011;7537;48.014;11.590;2023-03-23T21:25:32;6.89;;;3.09;;
14890;SDS011;7537;48.014;11.590;2023-03-23T21:31:01;8.92;;;3.50;;
14890;SDS011;7537;48.014;11.590;2023-03-23T21:36:29;2.72;;;2.76;;
14890;SDS011;7537;48.014;11.590;2023-03-23T21:42:03;7.24;;;5.38;;
14890;SDS011;7537;48.014;11.590;2023-03-23T21:47:30;6.34;;;4.41;;
14890;SDS011;7537;48.014;11.590;2023-03-23T21:52:58;4.27;;;3.79;;
14890;SDS011;7537;48.014;11.590;2023-03-23T21:58:25;4.87;;;4.22;;
14890;SDS011;7537;48.014;11.590;2023-03-23T22:03:53;5.76;;;3.31;;
14890;SDS011;7537;48.014;11.590;2023-03-23T22:09:20;5.38;;;3.66;;
14890;SDS011;7537;48.014;11.590;2023-03-23T22:14:48;11.59;;;7.74;;
14890;SDS011;7537;48.014;11.590;2023-03-23T22:20:15;4.03;;;3.66;;
14890;SDS011;7537;48.014;11.590;2023-03-23T22:25:42;7.29;;;4.01;;
14890;SDS011;7537;48.014;11.590;2023-03-23T22:31:11;3.46;;;2.36;;
14890;SDS011;7537;48.014;11.590;2023-03-23T22:36:39;2.47;;;2.42;;
14890;SDS011;7537;48.014;11.590;2023-03-23T22:42:10;2.99;;;3.09;;
14890;SDS011;7537;48.014;11.590;2023-03-23T22:47:37;2.49;;;2.49;;
14890;SDS011;7537;48.014;11.590;2023-03-23T22:53:05;2.57;;;2.66;;
14890;SDS011;7537;48.014;11.590;2023-03-23T22:58:32;2.06;;;2.21;;
14890;SDS011;7537;48.014;11.590;2023-03-23T23:04:00;2.24;;;2.23;;
14890;SDS011;7537;48.014;11.590;2023-03-23T23:09:27;2.24;;;2.14;;
14890;SDS011;7537;48.014;11.590;2023-03-23T23:14:55;8.50;;;3.27;;
14890;SDS011;7537;48.014;11.590;2023-03-23T23:20:22;1.69;;;1.87;;
14890;SDS011;7537;48.014;11.590;2023-03-23T23:25:50;2.41;;;2.40;;
14890;SDS011;7537;48.014;11.590;2023-03-23T23:31:19;2.41;;;2.39;;
14890;SDS011;7537;48.014;11.590;2023-03-23T23:36:47;2.46;;;2.19;;
14890;SDS011;7537;48.014;11.590;2023-03-23T23:42:17;1.93;;;1.87;;
14890;SDS011;7537;48.014;11.590;2023-03-23T23:47:46;3.84;;;2.31;;
14890;SDS011;7537;48.014;11.590;2023-03-23T23:53:14;1.89;;;1.91;;
14890;SDS011;7537;48.014;11.590;2023-03-23T23:58:46;2.05;;;2.12;;
